首页
METAR-TAF:

METAR-TAF

机场 :

内塔吉·苏巴斯·钱德拉·鲍斯国际机场

加尔各答, 印度

纬度: 22-39N, 经度: 088-27E, 海拔: 4米

当前天气观测

该预报发布于38分钟前的01:00 UTC
风速12节,风向
温度 31°C
湿度 84%
气压 1002 hPa
能見度: 3000
少量云层高于1800英尺
霾,

METAR: VECC 170100Z 18012KT 3000 HZ FEW018 31/28 Q1002 NOSIG

时间: 07:08 (01:38 UTC)

预报

该预报发布于2小时和38分钟前的23:00 UTC
预报有效从17日的 00点(UTC)到 18日的 06点(UTC)
风速10节,风向
能見度: 2800
散云层高于1800英尺
散云层高于10000英尺
成为
从 17日的 03点(UTC)到 17日的 05点(UTC)
能見度: 3500
短暂存在
从 17日的 10点(UTC)到 17日的 14点(UTC)
风速15节,风向西转西北,有时为25节阵风
能見度: 1500
散云层高于1500英尺
少量云层高于2500英尺, 积雨云.
阴天层高于9000英尺
雷暴, 雨
成为
从 17日的 23点(UTC)到 18日的 01点(UTC)
能見度: 2500
成为
从 18日的 03点(UTC)到 18日的 05点(UTC)
能見度: 3500
霾,

TAF: VECC 162300Z 1700/1806 18010KT 2800 HZ SCT018 SCT100 BECMG 1703/1705 3500 HZ TEMPO 1710/1714 29015G25KT 1500 TSRA SCT015 FEW025CB OVC090 BECMG 1723/1801 2500 HZ BECMG 1803/1805 3500 HZ

超过4000个机场的气象观测和天气预报(METAR&TAF报告)。

可查询的气象台以黄色和红色小点在地图上表示。

将鼠标移到小点上方,可查看气象台名称。

然后点击查看天气观测和预报。

如需切换地图:点击带黑十字的绿色按钮放大地图;点击带横线的绿色按钮缩小地图;或者点击绿色箭头查看邻近地区的地图。


METAR-TAF: